createdAt,value
2022-12-03T00:00:55.773Z,96.43
2022-12-03T00:01:55.686Z,96.15
2022-12-03T00:02:55.848Z,95.99
2022-12-03T00:03:55.847Z,95.38
2022-12-03T00:04:55.835Z,96.32
2022-12-03T00:05:55.649Z,95.88
2022-12-03T00:06:55.621Z,96.38
2022-12-03T00:07:55.682Z,97.00
2022-12-03T00:08:55.598Z,97.91
2022-12-03T00:09:55.593Z,97.39
2022-12-03T00:10:55.584Z,97.11
2022-12-03T00:11:55.570Z,96.54
2022-12-03T00:12:55.544Z,96.26
2022-12-03T00:13:55.532Z,95.60
2022-12-03T00:14:55.806Z,94.84
2022-12-03T00:15:55.570Z,94.57
2022-12-03T00:16:55.506Z,94.96
2022-12-03T00:17:55.490Z,94.96
2022-12-03T00:18:55.462Z,93.26
2022-12-03T00:19:55.454Z,92.43
2022-12-03T00:20:55.444Z,92.53
2022-12-03T00:21:55.428Z,92.74
2022-12-03T00:22:55.428Z,92.84
2022-12-03T00:23:55.400Z,93.57
2022-12-03T00:24:55.860Z,93.15
2022-12-03T00:25:55.377Z,93.15
2022-12-03T00:26:55.361Z,93.05
2022-12-03T00:27:55.371Z,93.36
2022-12-03T00:28:55.348Z,93.89
2022-12-03T00:29:55.331Z,94.42
2022-12-03T00:30:55.382Z,94.64
2022-12-03T00:31:55.307Z,94.64
2022-12-03T00:32:55.294Z,94.41
2022-12-03T00:33:55.272Z,94.68
2022-12-03T00:34:55.564Z,95.49
2022-12-03T00:35:55.252Z,96.88
2022-12-03T00:36:55.235Z,98.31
2022-12-03T00:37:55.235Z,100.82
2022-12-03T00:38:55.206Z,103.13
2022-12-03T00:39:55.211Z,103.52
2022-12-03T00:40:55.180Z,104.23
2022-12-03T00:41:55.186Z,104.43
2022-12-03T00:42:55.167Z,104.76
2022-12-03T00:43:55.149Z,105.09
2022-12-03T00:44:55.484Z,105.82
2022-12-03T00:45:55.117Z,106.78
2022-12-03T00:46:55.223Z,106.71
2022-12-03T00:47:55.103Z,105.35
2022-12-03T00:48:55.105Z,105.62
2022-12-03T00:49:55.080Z,104.89
2022-12-03T00:50:55.077Z,105.56
2022-12-03T00:51:55.043Z,105.35
2022-12-03T00:52:55.045Z,106.64
2022-12-03T00:53:55.019Z,105.96
2022-12-03T00:54:55.434Z,106.16
2022-12-03T00:55:55.000Z,105.96
2022-12-03T00:56:54.991Z,105.56
2022-12-03T00:57:55.068Z,106.43
2022-12-03T00:58:54.988Z,106.30
2022-12-03T00:59:54.958Z,105.89
2022-12-03T01:00:54.956Z,104.76
2022-12-03T01:01:55.005Z,104.43
2022-12-03T01:02:54.915Z,104.89
2022-12-03T01:03:54.894Z,103.97
2022-12-03T01:04:55.201Z,103.78
2022-12-03T01:05:54.888Z,103.58
2022-12-03T01:06:54.853Z,103.52
2022-12-03T01:07:55.003Z,103.78
2022-12-03T01:08:54.851Z,103.45
2022-12-03T01:09:54.858Z,103.71
2022-12-03T01:10:54.802Z,103.58
2022-12-03T01:11:54.846Z,103.13
2022-12-03T01:12:54.797Z,104.49
2022-12-03T01:13:54.761Z,105.22
2022-12-03T01:14:55.177Z,105.56
2022-12-03T01:15:54.786Z,106.57
2022-12-03T01:16:54.733Z,107.61
2022-12-03T01:17:54.724Z,108.80
2022-12-03T01:18:54.729Z,109.74
2022-12-03T01:19:54.712Z,111.43
2022-12-03T01:20:54.671Z,113.40
2022-12-03T01:21:54.667Z,115.69
2022-12-03T01:22:54.656Z,115.69
2022-12-03T01:23:54.642Z,117.00
2022-12-03T01:24:54.872Z,116.01
2022-12-03T01:25:54.615Z,116.18
2022-12-03T01:26:54.598Z,117.16
2022-12-03T01:27:54.600Z,118.16
2022-12-03T01:28:54.573Z,118.41
2022-12-03T01:29:54.601Z,119.43
2022-12-03T01:30:54.610Z,120.47
2022-12-03T01:31:54.553Z,121.08
2022-12-03T01:32:54.541Z,122.15
2022-12-03T01:33:54.513Z,120.91
2022-12-03T01:34:54.900Z,121.17
2022-12-03T01:35:54.524Z,121.17
2022-12-03T01:36:54.482Z,121.26
2022-12-03T01:37:54.463Z,120.47
2022-12-03T01:38:54.451Z,120.91
2022-12-03T01:39:54.470Z,121.62
2022-12-03T01:40:54.434Z,120.21
2022-12-03T01:41:54.449Z,120.64
2022-12-03T01:42:54.395Z,121.62
2022-12-03T01:43:54.393Z,122.06
2022-12-03T01:44:54.741Z,123.06
2022-12-03T01:45:54.364Z,121.08
2022-12-03T01:46:54.454Z,120.38
2022-12-03T01:47:54.364Z,121.08
2022-12-03T01:48:54.321Z,120.64
2022-12-03T01:49:54.321Z,120.21
2022-12-03T01:50:54.323Z,119.78
2022-12-03T01:51:54.316Z,120.64
2022-12-03T01:52:54.272Z,121.97
2022-12-03T01:53:54.292Z,122.06
2022-12-03T01:54:54.514Z,122.24
2022-12-03T01:55:54.251Z,121.35
2022-12-03T01:56:54.231Z,121.53
2022-12-03T01:57:54.217Z,120.30
2022-12-03T01:58:54.198Z,118.75
2022-12-03T01:59:54.218Z,118.07
2022-12-03T02:00:54.187Z,118.50
2022-12-03T02:01:54.201Z,118.92
2022-12-03T02:02:54.142Z,118.83
2022-12-03T02:03:54.216Z,119.18
2022-12-03T02:04:54.621Z,118.75
2022-12-03T02:05:54.165Z,120.38
2022-12-03T02:06:54.109Z,120.73
2022-12-03T02:07:54.217Z,121.17
2022-12-03T02:08:54.097Z,121.26
2022-12-03T02:09:54.071Z,120.12
2022-12-03T02:10:54.053Z,121.17
2022-12-03T02:11:54.036Z,121.97
2022-12-03T02:12:54.043Z,121.79
2022-12-03T02:13:54.018Z,120.56
2022-12-03T02:14:54.316Z,120.73
2022-12-03T02:15:54.051Z,121.26
2022-12-03T02:16:54.020Z,120.38
2022-12-03T02:17:53.965Z,118.83
2022-12-03T02:18:53.977Z,120.47
2022-12-03T02:19:53.952Z,120.82
2022-12-03T02:20:53.935Z,123.06
2022-12-03T02:21:53.932Z,127.10
2022-12-03T02:22:53.897Z,127.39
2022-12-03T02:23:53.893Z,126.81
2022-12-03T02:24:54.163Z,127.79
2022-12-03T02:25:53.863Z,126.81
2022-12-03T02:26:53.855Z,128.68
2022-12-03T02:27:53.843Z,127.59
2022-12-03T02:28:53.833Z,126.23
2022-12-03T02:29:53.820Z,123.79
2022-12-03T02:30:53.825Z,124.07
2022-12-03T02:31:53.875Z,123.79
2022-12-03T02:32:53.779Z,124.44
2022-12-03T02:33:53.768Z,124.25
2022-12-03T02:34:54.081Z,123.33
2022-12-03T02:35:53.752Z,124.35
2022-12-03T02:36:53.750Z,123.88
2022-12-03T02:37:53.726Z,124.35
2022-12-03T02:38:53.692Z,123.24
2022-12-03T02:39:53.711Z,121.97
2022-12-03T02:40:53.671Z,121.44
2022-12-03T02:41:53.704Z,120.47
2022-12-03T02:42:53.859Z,120.30
2022-12-03T02:43:53.641Z,120.91
2022-12-03T02:44:53.884Z,121.35
2022-12-03T02:45:53.604Z,121.17
2022-12-03T02:46:53.717Z,122.15
2022-12-03T02:47:53.627Z,121.62
2022-12-03T02:48:53.569Z,121.08
2022-12-03T02:49:53.576Z,120.64
2022-12-03T02:50:53.542Z,121.08
2022-12-03T02:51:53.532Z,119.60
2022-12-03T02:52:53.543Z,118.58
2022-12-03T02:53:53.521Z,117.08
2022-12-03T02:54:53.697Z,115.37
2022-12-03T02:55:53.485Z,116.10
2022-12-03T02:56:53.481Z,115.21
2022-12-03T02:57:53.484Z,114.42
2022-12-03T02:58:53.455Z,113.95
2022-12-03T02:59:53.456Z,112.86
2022-12-03T03:00:53.554Z,113.10
2022-12-03T03:01:53.439Z,114.26
2022-12-03T03:02:53.404Z,115.21
2022-12-03T03:03:53.400Z,116.83
2022-12-03T03:04:53.683Z,116.42
2022-12-03T03:05:53.376Z,116.50
2022-12-03T03:06:53.333Z,115.77
2022-12-03T03:07:53.406Z,115.93
2022-12-03T03:08:53.344Z,115.21
2022-12-03T03:09:53.299Z,114.10
2022-12-03T03:10:53.299Z,114.65
2022-12-03T03:11:53.317Z,115.05
2022-12-03T03:12:53.268Z,115.37
2022-12-03T03:13:53.290Z,114.10
2022-12-03T03:14:53.571Z,114.34
2022-12-03T03:15:53.312Z,113.48
2022-12-03T03:16:53.347Z,112.25
2022-12-03T03:17:53.205Z,111.20
2022-12-03T03:18:53.191Z,111.43
2022-12-03T03:19:53.199Z,111.35
2022-12-03T03:20:53.186Z,111.58
2022-12-03T03:21:53.153Z,110.61
2022-12-03T03:22:53.178Z,110.98
2022-12-03T03:23:53.147Z,110.76
2022-12-03T03:24:53.407Z,110.32
2022-12-03T03:25:53.132Z,110.32
2022-12-03T03:26:53.098Z,110.03
2022-12-03T03:27:53.121Z,109.66
2022-12-03T03:28:53.096Z,110.10
2022-12-03T03:29:53.069Z,109.74
2022-12-03T03:30:53.032Z,109.09
2022-12-03T03:31:53.095Z,108.38
2022-12-03T03:32:53.053Z,108.87
2022-12-03T03:33:52.994Z,108.73
2022-12-03T03:34:53.395Z,109.16
2022-12-03T03:35:52.988Z,109.74
2022-12-03T03:36:52.958Z,110.98
2022-12-03T03:37:52.945Z,112.86
2022-12-03T03:38:52.973Z,113.64
2022-12-03T03:39:52.943Z,113.48
2022-12-03T03:40:52.916Z,114.26
2022-12-03T03:41:52.892Z,114.50
2022-12-03T03:42:52.907Z,113.56
2022-12-03T03:43:52.877Z,113.40
2022-12-03T03:44:53.169Z,114.34
2022-12-03T03:45:52.913Z,114.97
2022-12-03T03:46:52.827Z,114.81
2022-12-03T03:47:52.851Z,115.37
2022-12-03T03:48:52.801Z,115.21
2022-12-03T03:49:52.814Z,114.81
2022-12-03T03:50:52.806Z,116.34
2022-12-03T03:51:52.831Z,116.18
2022-12-03T03:52:52.758Z,115.69
2022-12-03T03:53:52.768Z,115.05
2022-12-03T03:54:53.100Z,114.73
2022-12-03T03:55:52.727Z,115.05
2022-12-03T03:56:52.714Z,114.26
2022-12-03T03:57:52.692Z,114.03
2022-12-03T03:58:52.692Z,114.18
2022-12-03T03:59:52.663Z,113.48
2022-12-03T04:00:52.733Z,112.79
2022-12-03T04:01:52.637Z,112.10
2022-12-03T04:02:52.629Z,110.61
2022-12-03T04:03:52.672Z,110.68
2022-12-03T04:04:53.175Z,111.13
2022-12-03T04:05:52.587Z,112.33
2022-12-03T04:06:52.587Z,112.56
2022-12-03T04:07:52.719Z,112.18
2022-12-03T04:08:52.551Z,112.71
2022-12-03T04:09:52.541Z,112.41
2022-12-03T04:10:52.553Z,113.17
2022-12-03T04:11:52.520Z,113.10
2022-12-03T04:12:52.530Z,112.71
2022-12-03T04:13:52.508Z,112.56
2022-12-03T04:14:52.821Z,113.17
2022-12-03T04:15:52.461Z,112.18
2022-12-03T04:16:52.519Z,112.48
2022-12-03T04:17:52.445Z,113.48
2022-12-03T04:18:52.448Z,113.33
2022-12-03T04:19:52.425Z,112.25
2022-12-03T04:20:52.397Z,112.03
2022-12-03T04:21:52.430Z,110.91
2022-12-03T04:22:52.386Z,111.20
2022-12-03T04:23:52.362Z,111.43
2022-12-03T04:24:52.819Z,111.50
2022-12-03T04:25:52.370Z,111.43
2022-12-03T04:26:52.335Z,111.13
2022-12-03T04:27:52.313Z,110.91
2022-12-03T04:28:52.296Z,111.20
2022-12-03T04:29:52.281Z,110.76
2022-12-03T04:30:52.393Z,110.91
2022-12-03T04:31:52.253Z,111.58
2022-12-03T04:32:52.253Z,111.13
2022-12-03T04:33:52.249Z,111.80
2022-12-03T04:34:52.791Z,112.94
2022-12-03T04:35:52.316Z,112.33
2022-12-03T04:36:52.200Z,112.56
2022-12-03T04:37:52.190Z,112.86
2022-12-03T04:38:52.180Z,112.94
2022-12-03T04:39:52.168Z,112.48
2022-12-03T04:40:52.173Z,110.91
2022-12-03T04:41:52.143Z,111.58
2022-12-03T04:42:52.208Z,111.80
2022-12-03T04:43:52.194Z,111.50
2022-12-03T04:44:52.597Z,112.03
2022-12-03T04:45:52.126Z,112.79
2022-12-03T04:46:52.084Z,114.03
2022-12-03T04:47:52.055Z,114.65
2022-12-03T04:48:52.077Z,116.42
2022-12-03T04:49:52.024Z,118.24
2022-12-03T04:50:52.065Z,119.00
2022-12-03T04:51:51.998Z,120.56
2022-12-03T04:52:51.993Z,122.06
2022-12-03T04:53:52.071Z,120.30
2022-12-03T04:54:52.279Z,121.08
2022-12-03T04:55:51.970Z,120.73
2022-12-03T04:56:51.945Z,119.69
2022-12-03T04:57:51.935Z,120.38
2022-12-03T04:58:51.922Z,121.53
2022-12-03T04:59:51.914Z,122.33
2022-12-03T05:00:51.970Z,121.79
2022-12-03T05:01:51.937Z,121.97
2022-12-03T05:02:51.950Z,123.06
2022-12-03T05:03:51.859Z,122.15
2022-12-03T05:04:52.243Z,121.97
2022-12-03T05:05:51.828Z,120.91
2022-12-03T05:06:51.825Z,119.00
2022-12-03T05:07:51.915Z,116.67
2022-12-03T05:08:51.807Z,116.58
2022-12-03T05:09:51.797Z,115.13
2022-12-03T05:10:51.789Z,115.45
2022-12-03T05:11:51.755Z,114.65
2022-12-03T05:12:51.757Z,114.50
2022-12-03T05:13:51.759Z,114.42
2022-12-03T05:14:52.216Z,114.10
2022-12-03T05:15:51.705Z,112.25
2022-12-03T05:16:51.768Z,112.56
2022-12-03T05:17:51.669Z,111.80
2022-12-03T05:18:51.671Z,111.43
2022-12-03T05:19:51.649Z,110.54
2022-12-03T05:20:53.659Z,110.83
2022-12-03T05:21:51.624Z,111.20
2022-12-03T05:22:51.613Z,111.20
2022-12-03T05:23:51.602Z,111.88
2022-12-03T05:24:52.000Z,111.88
2022-12-03T05:25:51.586Z,111.20
2022-12-03T05:26:51.556Z,111.06
2022-12-03T05:27:51.540Z,110.61
2022-12-03T05:28:51.548Z,110.32
2022-12-03T05:29:51.525Z,110.03
2022-12-03T05:30:51.567Z,109.45
2022-12-03T05:31:51.518Z,109.02
2022-12-03T05:32:51.492Z,108.66
2022-12-03T05:33:51.469Z,108.66
2022-12-03T05:34:51.824Z,107.74
2022-12-03T05:35:51.472Z,107.67
2022-12-03T05:36:51.451Z,106.91
2022-12-03T05:37:51.429Z,106.64
2022-12-03T05:38:51.419Z,105.96
2022-12-03T05:39:51.422Z,105.49
2022-12-03T05:40:51.396Z,104.89
2022-12-03T05:41:51.471Z,105.09
2022-12-03T05:42:51.411Z,104.62
2022-12-03T05:43:51.344Z,103.78
2022-12-03T05:44:51.711Z,103.58
2022-12-03T05:45:51.378Z,103.78
2022-12-03T05:46:51.310Z,104.30
2022-12-03T05:47:59.829Z,103.45
2022-12-03T05:48:51.480Z,103.32
2022-12-03T05:49:51.399Z,102.75
2022-12-03T05:50:51.294Z,102.06
2022-12-03T05:51:56.716Z,102.56
2022-12-03T05:52:51.234Z,103.00
2022-12-03T05:53:51.308Z,102.81
2022-12-03T05:55:07.789Z,103.71
2022-12-03T05:55:51.244Z,103.71
2022-12-03T05:56:51.210Z,102.56
2022-12-03T05:57:51.192Z,101.81
2022-12-03T05:59:07.092Z,101.06
2022-12-03T05:59:51.415Z,100.33
2022-12-03T06:00:51.161Z,99.85
2022-12-03T06:01:51.114Z,99.67
2022-12-03T06:02:51.282Z,99.97
2022-12-03T06:03:51.214Z,99.79
2022-12-03T06:04:51.320Z,99.73
2022-12-03T06:06:02.446Z,100.03
2022-12-03T06:08:28.987Z,132.36
2022-12-03T06:09:29.804Z,119.78
2022-12-03T06:10:29.808Z,113.10
2022-12-03T06:13:58.239Z,138.08
2022-12-03T06:14:59.202Z,124.53
2022-12-03T06:17:43.154Z,148.57
2022-12-03T06:18:43.839Z,133.00
2022-12-03T06:19:43.539Z,125.57
2022-12-03T06:22:04.673Z,153.23
2022-12-03T06:23:05.652Z,136.83
2022-12-03T06:24:05.641Z,128.48
2022-12-03T06:25:07.190Z,122.33
2022-12-03T06:26:05.611Z,117.49
2022-12-03T06:27:05.610Z,113.10
2022-12-03T06:28:05.592Z,109.59
2022-12-03T06:29:05.601Z,107.61
2022-12-03T06:30:05.583Z,106.09
2022-12-03T06:31:05.635Z,104.30
2022-12-03T06:32:05.545Z,104.36
2022-12-03T06:33:05.538Z,103.97
2022-12-03T06:34:05.508Z,104.17
2022-12-03T06:35:05.512Z,105.29
2022-12-03T06:36:05.484Z,105.96
2022-12-03T06:37:05.478Z,104.62
2022-12-03T06:38:05.462Z,103.52
2022-12-03T06:39:05.450Z,104.10
2022-12-03T06:40:05.442Z,103.78
2022-12-03T06:41:05.425Z,103.84
2022-12-03T06:42:05.435Z,104.17
2022-12-03T06:43:05.437Z,104.89
2022-12-03T06:44:05.407Z,104.49
2022-12-03T06:45:05.373Z,106.30
2022-12-03T06:46:05.405Z,105.96
2022-12-03T06:47:05.363Z,106.84
2022-12-03T06:48:05.350Z,107.40
2022-12-03T06:49:05.323Z,107.19
2022-12-03T06:50:05.315Z,107.95
2022-12-03T06:51:05.314Z,108.59
2022-12-03T06:52:05.305Z,108.87
2022-12-03T06:53:05.276Z,109.16
2022-12-03T06:54:05.257Z,109.30
2022-12-03T06:55:05.255Z,108.31
2022-12-03T06:56:05.243Z,106.57
2022-12-03T06:57:05.245Z,106.03
2022-12-03T06:58:05.227Z,105.49
2022-12-03T06:59:05.200Z,104.30
2022-12-03T07:00:05.217Z,103.58
2022-12-03T07:01:05.197Z,102.56
2022-12-03T07:02:05.294Z,102.50
2022-12-03T07:03:05.269Z,102.31
2022-12-03T07:04:05.145Z,103.39
2022-12-03T07:05:05.129Z,104.43
2022-12-03T07:06:05.103Z,105.42
2022-12-03T07:07:05.092Z,104.62
2022-12-03T07:08:05.173Z,104.96
2022-12-03T07:09:05.078Z,105.02
2022-12-03T07:10:05.070Z,106.78
2022-12-03T07:11:05.052Z,108.02
2022-12-03T07:12:05.049Z,107.88
2022-12-03T07:13:05.024Z,108.31
2022-12-03T07:14:05.943Z,108.09
2022-12-03T07:15:04.993Z,107.81
2022-12-03T07:16:05.060Z,107.19
2022-12-03T07:17:04.981Z,106.36
2022-12-03T07:18:04.949Z,106.98
2022-12-03T07:19:04.975Z,106.50
2022-12-03T07:20:04.933Z,106.50
2022-12-03T07:21:04.945Z,106.36
2022-12-03T07:22:04.943Z,106.43
2022-12-03T07:23:04.914Z,107.40
2022-12-03T07:24:04.880Z,109.52
2022-12-03T07:25:04.914Z,109.16
2022-12-03T07:26:04.904Z,110.17
2022-12-03T07:27:04.839Z,110.17
2022-12-03T07:28:04.850Z,110.10
2022-12-03T07:29:04.815Z,110.68
2022-12-03T07:30:04.796Z,109.95
2022-12-03T07:31:04.840Z,109.16
2022-12-03T07:32:04.805Z,108.24
2022-12-03T07:33:04.763Z,107.47
2022-12-03T07:34:04.750Z,106.71
2022-12-03T07:35:04.836Z,105.89
2022-12-03T07:36:04.724Z,106.09
2022-12-03T07:37:04.716Z,106.64
2022-12-03T07:38:04.721Z,106.84
2022-12-03T07:39:04.710Z,107.81
2022-12-03T07:40:04.668Z,107.12
2022-12-03T07:41:04.700Z,107.88
2022-12-03T07:42:04.643Z,107.05
2022-12-03T07:43:04.641Z,106.23
2022-12-03T07:44:07.834Z,107.54
2022-12-03T07:45:04.612Z,108.94
2022-12-03T07:46:04.623Z,108.09
2022-12-03T07:47:04.657Z,107.74
2022-12-03T07:48:04.577Z,108.87
2022-12-03T07:49:04.599Z,109.45
2022-12-03T07:50:04.564Z,109.16
2022-12-03T07:51:04.532Z,109.59
2022-12-03T07:52:04.540Z,108.73
2022-12-03T07:53:04.549Z,107.88
2022-12-03T07:54:04.502Z,108.80
2022-12-03T07:55:04.485Z,109.30
2022-12-03T07:56:04.468Z,109.66
2022-12-03T07:57:04.455Z,108.38
2022-12-03T07:58:04.461Z,107.74
2022-12-03T07:59:04.442Z,108.09
2022-12-03T08:00:04.434Z,108.59
2022-12-03T08:01:04.482Z,108.94
2022-12-03T08:02:04.436Z,107.81
2022-12-03T08:03:04.382Z,107.40
2022-12-03T08:04:04.367Z,106.78
2022-12-03T08:05:04.354Z,106.03
2022-12-03T08:06:04.350Z,105.02
2022-12-03T08:07:04.328Z,103.58
2022-12-03T08:08:04.356Z,101.99
2022-12-03T08:09:04.317Z,101.56
2022-12-03T08:10:04.287Z,101.93
2022-12-03T08:11:04.316Z,102.06
2022-12-03T08:12:04.261Z,102.75
2022-12-03T08:13:04.261Z,103.00
2022-12-03T08:14:04.236Z,103.45
2022-12-03T08:15:04.250Z,104.23
2022-12-03T08:16:04.253Z,103.00
2022-12-03T08:17:04.204Z,102.06
2022-12-03T08:18:04.193Z,102.24
2022-12-03T08:19:04.195Z,102.56
2022-12-03T08:20:04.159Z,102.56
2022-12-03T08:21:04.149Z,104.23
2022-12-03T08:22:04.142Z,106.03
2022-12-03T08:23:04.148Z,106.71
2022-12-03T08:24:04.113Z,108.02
2022-12-03T08:25:04.097Z,109.09
2022-12-03T08:26:04.081Z,109.45
2022-12-03T08:27:04.078Z,108.59
2022-12-03T08:28:04.073Z,107.74
2022-12-03T08:29:04.046Z,105.22
2022-12-03T08:30:04.030Z,103.91
2022-12-03T08:31:04.055Z,102.24
2022-12-03T08:32:04.050Z,102.06
2022-12-03T08:33:04.079Z,101.81
2022-12-03T08:34:03.984Z,102.24
2022-12-03T08:35:04.003Z,102.37
2022-12-03T08:36:03.976Z,102.81
2022-12-03T08:37:03.958Z,101.68
2022-12-03T08:38:03.959Z,101.56
2022-12-03T08:39:03.921Z,101.74
2022-12-03T08:40:03.917Z,102.18
2022-12-03T08:41:03.903Z,102.62
2022-12-03T08:42:05.947Z,102.81
2022-12-03T08:43:03.877Z,103.97
2022-12-03T08:44:03.852Z,103.52
2022-12-03T08:45:03.864Z,103.58
2022-12-03T08:46:03.922Z,102.56
2022-12-03T08:47:03.819Z,102.31
2022-12-03T08:48:03.812Z,102.31
2022-12-03T08:49:03.792Z,102.43
2022-12-03T08:50:03.778Z,101.93
2022-12-03T08:51:03.769Z,101.93
2022-12-03T08:52:03.773Z,102.06
2022-12-03T08:53:03.746Z,101.87
2022-12-03T08:54:03.737Z,102.31
2022-12-03T08:55:03.725Z,101.99
2022-12-03T08:56:03.710Z,101.99
2022-12-03T08:57:03.699Z,102.24
2022-12-03T08:58:03.670Z,102.88
2022-12-03T08:59:03.674Z,103.78
2022-12-03T09:00:03.647Z,105.22
2022-12-03T09:01:03.709Z,105.56
2022-12-03T09:02:03.634Z,105.29
2022-12-03T09:03:03.613Z,104.30
2022-12-03T09:04:03.737Z,103.07
2022-12-03T09:05:03.590Z,102.43
2022-12-03T09:06:03.572Z,101.19
2022-12-03T09:07:03.649Z,99.31
2022-12-03T09:08:03.592Z,98.66
2022-12-03T09:09:06.734Z,97.74
2022-12-03T09:10:03.524Z,96.43
2022-12-03T09:11:03.513Z,96.54
2022-12-03T09:12:03.571Z,96.04
2022-12-03T09:13:04.303Z,95.88
2022-12-03T09:14:03.487Z,95.77
2022-12-03T09:15:03.460Z,95.54
2022-12-03T09:16:03.475Z,95.99
2022-12-03T09:17:03.531Z,96.26
2022-12-03T09:18:03.425Z,96.15
2022-12-03T09:19:03.423Z,96.43
2022-12-03T09:20:03.411Z,97.17
2022-12-03T09:21:03.397Z,98.37
2022-12-03T09:22:03.367Z,98.78
2022-12-03T09:23:03.466Z,99.25
2022-12-03T09:24:03.371Z,99.79
2022-12-03T09:25:03.364Z,99.85
2022-12-03T09:26:03.371Z,101.25
2022-12-03T09:27:03.305Z,101.00
2022-12-03T09:28:03.295Z,100.70
2022-12-03T09:29:07.544Z,100.64
2022-12-03T09:30:03.280Z,100.39
2022-12-03T09:31:03.287Z,100.21
2022-12-03T09:32:03.405Z,99.73
2022-12-03T09:33:03.263Z,100.03
2022-12-03T09:34:03.230Z,99.61
2022-12-03T09:35:03.210Z,99.14
2022-12-03T09:36:03.226Z,98.02
2022-12-03T09:37:03.194Z,97.45
2022-12-03T09:38:03.174Z,97.51
2022-12-03T09:39:03.177Z,97.39
2022-12-03T09:40:03.153Z,98.43
2022-12-03T09:41:03.145Z,100.39
2022-12-03T09:42:03.127Z,101.12
2022-12-03T09:43:03.103Z,101.93
2022-12-03T09:44:04.717Z,102.69
2022-12-03T09:45:03.095Z,104.10
2022-12-03T09:46:03.152Z,104.49
2022-12-03T09:47:03.097Z,105.89
2022-12-03T09:48:03.091Z,106.43
2022-12-03T09:49:03.025Z,105.76
2022-12-03T09:50:03.045Z,106.78
2022-12-03T09:51:03.004Z,106.50
2022-12-03T09:52:02.990Z,105.56
2022-12-03T09:53:02.974Z,104.49
2022-12-03T09:54:02.987Z,103.84
2022-12-03T09:55:02.949Z,103.78
2022-12-03T09:56:02.944Z,103.52
2022-12-03T09:57:02.942Z,103.07
2022-12-03T09:58:02.916Z,103.91
2022-12-03T09:59:02.926Z,103.45
2022-12-03T10:00:02.894Z,104.62
2022-12-03T10:01:03.003Z,104.76
2022-12-03T10:02:03.007Z,106.84
2022-12-03T10:03:02.853Z,107.05
2022-12-03T10:04:02.864Z,106.91
2022-12-03T10:05:02.940Z,106.84
2022-12-03T10:06:02.807Z,107.26
2022-12-03T10:07:02.813Z,105.89
2022-12-03T10:08:02.857Z,105.69
2022-12-03T10:09:02.786Z,105.29
2022-12-03T10:10:02.766Z,104.82
2022-12-03T10:11:02.763Z,104.76
2022-12-03T10:12:02.779Z,104.30
2022-12-03T10:13:02.720Z,105.56
2022-12-03T10:14:02.746Z,104.10
2022-12-03T10:15:02.703Z,102.75
2022-12-03T10:16:02.691Z,101.50
2022-12-03T10:17:02.732Z,101.50
2022-12-03T10:18:02.687Z,102.50
2022-12-03T10:19:02.652Z,103.13
2022-12-03T10:20:02.643Z,102.88
2022-12-03T10:21:02.616Z,103.26
2022-12-03T10:22:02.623Z,104.69
2022-12-03T10:23:02.596Z,105.69
2022-12-03T10:24:02.594Z,105.89
2022-12-03T10:25:02.570Z,108.45
2022-12-03T10:26:02.556Z,110.46
2022-12-03T10:27:02.550Z,110.98
2022-12-03T10:28:02.554Z,109.88
2022-12-03T10:29:02.524Z,110.76
2022-12-03T10:30:02.509Z,111.35
2022-12-03T10:31:02.613Z,111.58
2022-12-03T10:32:02.493Z,110.91
2022-12-03T10:33:02.507Z,110.83
2022-12-03T10:34:02.453Z,110.03
2022-12-03T10:35:02.459Z,110.03
2022-12-03T10:36:02.429Z,108.02
2022-12-03T10:37:02.414Z,108.09
2022-12-03T10:38:02.414Z,107.81
2022-12-03T10:39:02.398Z,109.02
2022-12-03T10:40:02.375Z,109.59
2022-12-03T10:41:02.371Z,110.03
2022-12-03T10:42:02.377Z,110.54
2022-12-03T10:43:02.363Z,109.45
2022-12-03T10:44:02.323Z,110.25
2022-12-03T10:45:02.336Z,110.61
2022-12-03T10:46:04.453Z,109.88
2022-12-03T10:47:02.427Z,110.03
2022-12-03T10:48:02.305Z,109.95
2022-12-03T10:49:02.258Z,109.95
2022-12-03T10:50:02.245Z,112.03
2022-12-03T10:51:02.259Z,113.48
2022-12-03T10:52:02.249Z,113.48
2022-12-03T10:53:02.246Z,114.10
2022-12-03T10:54:02.205Z,115.61
2022-12-03T10:55:02.197Z,113.64
2022-12-03T10:56:02.182Z,114.34
2022-12-03T10:57:02.162Z,114.03
2022-12-03T10:58:02.151Z,113.79
2022-12-03T10:59:02.164Z,115.69
2022-12-03T11:00:02.132Z,120.73
2022-12-03T11:01:02.151Z,123.42
2022-12-03T11:02:02.205Z,125.57
2022-12-03T11:03:02.082Z,127.39
2022-12-03T11:04:02.150Z,126.43
2022-12-03T11:05:02.083Z,123.97
2022-12-03T11:06:02.054Z,122.60
2022-12-03T11:07:02.029Z,120.47
2022-12-03T11:08:02.160Z,120.38
2022-12-03T11:09:08.355Z,120.47
2022-12-03T11:10:02.020Z,119.26
2022-12-03T11:11:01.978Z,118.07
2022-12-03T11:12:01.986Z,116.91
2022-12-03T11:13:01.974Z,117.32
2022-12-03T11:14:01.953Z,116.01
2022-12-03T11:15:01.954Z,116.75
2022-12-03T11:16:01.962Z,116.26
2022-12-03T11:17:01.921Z,116.50
2022-12-03T11:18:01.890Z,117.57
2022-12-03T11:19:01.894Z,119.18
2022-12-03T11:20:01.874Z,121.71
2022-12-03T11:21:01.848Z,125.19
2022-12-03T11:22:01.847Z,125.57
2022-12-03T11:23:01.837Z,125.47
2022-12-03T11:24:01.850Z,122.96
2022-12-03T11:25:01.809Z,122.06
2022-12-03T11:26:01.826Z,121.79
2022-12-03T11:27:01.775Z,120.82
2022-12-03T11:28:01.769Z,121.79
2022-12-03T11:29:01.755Z,120.38
2022-12-03T11:30:01.851Z,121.44
2022-12-03T11:31:01.792Z,120.56
2022-12-03T11:32:01.744Z,123.15
2022-12-03T11:33:01.711Z,123.24
2022-12-03T11:34:01.708Z,126.14
2022-12-03T11:35:01.676Z,126.71
2022-12-03T11:36:01.663Z,130.70
2022-12-03T11:37:02.230Z,131.32
2022-12-03T11:38:01.641Z,130.70
2022-12-03T11:39:01.627Z,127.98
2022-12-03T11:40:01.768Z,126.71
2022-12-03T11:41:01.617Z,124.91
2022-12-03T11:42:01.588Z,120.64
2022-12-03T11:43:01.572Z,118.67
2022-12-03T11:44:01.574Z,117.00
2022-12-03T11:45:01.623Z,115.69
2022-12-03T11:46:04.366Z,115.61
2022-12-03T11:47:02.082Z,115.37
2022-12-03T11:48:01.554Z,117.24
2022-12-03T11:49:01.491Z,116.58
2022-12-03T11:50:01.638Z,116.34
2022-12-03T11:51:01.475Z,117.16
2022-12-03T11:52:01.478Z,118.83
2022-12-03T11:53:01.457Z,119.78
2022-12-03T11:54:01.435Z,121.44
2022-12-03T11:55:01.415Z,120.04
2022-12-03T11:56:04.561Z,122.33
2022-12-03T11:57:01.396Z,121.08
2022-12-03T11:58:01.387Z,122.06
2022-12-03T11:59:01.381Z,121.88
2022-12-03T12:00:01.359Z,121.88
2022-12-03T12:01:01.379Z,119.18
2022-12-03T12:02:01.343Z,115.85
2022-12-03T12:03:01.365Z,112.41
2022-12-03T12:04:01.338Z,109.16
2022-12-03T12:05:01.421Z,108.09
2022-12-03T12:06:01.290Z,108.09
2022-12-03T12:07:01.263Z,107.47
2022-12-03T12:08:01.414Z,106.91
2022-12-03T12:09:01.236Z,108.38
2022-12-03T12:10:01.403Z,110.91
2022-12-03T12:11:01.216Z,113.33
2022-12-03T12:12:01.234Z,113.79
2022-12-03T12:13:01.204Z,115.13
2022-12-03T12:14:01.198Z,116.42
2022-12-03T12:15:01.275Z,117.32
2022-12-03T12:16:01.206Z,116.67
2022-12-03T12:17:01.141Z,117.00
2022-12-03T12:18:01.125Z,117.57
2022-12-03T12:19:01.124Z,118.33
2022-12-03T12:20:01.115Z,117.91
2022-12-03T12:21:01.118Z,117.49
2022-12-03T12:22:01.093Z,116.26
2022-12-03T12:23:01.097Z,117.32
2022-12-03T12:24:01.091Z,117.91
2022-12-03T12:25:01.030Z,120.30
2022-12-03T12:26:01.021Z,119.69
2022-12-03T12:27:01.018Z,119.00
2022-12-03T12:28:01.019Z,120.21
2022-12-03T12:29:00.984Z,119.18
2022-12-03T12:30:00.977Z,118.24
2022-12-03T12:31:01.045Z,118.67
2022-12-03T12:32:01.065Z,118.58
2022-12-03T12:33:00.942Z,118.83
2022-12-03T12:34:00.953Z,118.50
2022-12-03T12:35:00.910Z,117.24
2022-12-03T12:36:00.907Z,115.53
2022-12-03T12:37:00.893Z,115.13
2022-12-03T12:38:00.921Z,112.64